Time;durP1;ratioP1;P1;durP2;ratioP2;P2;SDS_P1;SDS_P2;PMS_P1;PMS_P2;Temp;Humidity;BMP_temperature;BMP_pressure;BME280_temperature;BME280_humidity;BME280_pressure;Samples;Min_cycle;Max_cycle;Signal;HPM_P1;HPM_P2
2022/12/25 00:01:16;;;;;;;1.17;0.75;;;11.20;99.90;;;;;;4975995;28;20023;-63
2022/12/25 00:03:42;;;;;;;12.18;1.70;;;11.10;99.90;;;;;;4995222;28;20403;-64
2022/12/25 00:06:08;;;;;;;2.17;1.27;;;11.20;99.90;;;;;;4994566;28;20037;-63
2022/12/25 00:08:35;;;;;;;0.57;0.57;;;11.30;99.90;;;;;;4977431;28;20026;-63
2022/12/25 00:11:03;;;;;;;0.10;0.10;;;11.30;99.90;;;;;;4978103;28;20026;-63
2022/12/25 00:13:30;;;;;;;3.00;1.60;;;11.30;99.90;;;;;;4992141;28;20085;-64
2022/12/25 00:15:56;;;;;;;2.20;2.05;;;11.20;99.90;;;;;;4995109;28;20085;-68
2022/12/25 00:18:22;;;;;;;0.40;0.40;;;11.20;99.90;;;;;;4994835;28;20030;-64
2022/12/25 00:20:58;;;;;;;0.95;0.95;;;11.20;99.90;;;;;;4977348;28;20109;-68
2022/12/25 00:23:25;;;;;;;2.00;1.55;;;11.20;99.90;;;;;;4995066;28;20038;-65
2022/12/25 00:25:51;;;;;;;2.55;0.80;;;11.00;99.90;;;;;;4994237;28;20018;-63
2022/12/25 00:28:17;;;;;;;1.05;0.82;;;11.00;99.90;;;;;;4994115;28;20375;-67
2022/12/25 00:30:43;;;;;;;0.73;0.70;;;11.00;99.90;;;;;;4994051;28;20030;-65
2022/12/25 00:33:09;;;;;;;0.88;0.88;;;11.10;99.90;;;;;;4994292;28;20031;-64
2022/12/25 00:35:35;;;;;;;0.45;0.45;;;11.10;99.90;;;;;;4993922;28;20482;-68
2022/12/25 00:38:01;;;;;;;0.25;0.25;;;11.20;99.90;;;;;;4993702;28;20037;-65
2022/12/25 00:40:26;;;;;;;2.78;2.00;;;11.20;99.90;;;;;;4976487;28;20084;-68
2022/12/25 00:42:52;;;;;;;2.25;1.00;;;11.10;99.90;;;;;;4993891;28;20579;-69
2022/12/25 00:45:18;;;;;;;0.40;0.40;;;11.10;99.90;;;;;;4993791;28;20022;-67
2022/12/25 00:47:43;;;;;;;3.35;2.05;;;11.10;99.90;;;;;;4976118;28;20018;-68
2022/12/25 00:50:10;;;;;;;16.50;5.35;;;11.10;99.90;;;;;;4993794;28;20018;-69
2022/12/25 00:52:36;;;;;;;0.15;0.15;;;11.20;99.90;;;;;;4993595;28;20464;-65
2022/12/25 00:55:02;;;;;;;0.17;0.17;;;11.10;99.90;;;;;;4993521;28;20030;-65
2022/12/25 00:57:28;;;;;;;0.70;0.70;;;11.10;99.90;;;;;;4993808;28;20037;-66
2022/12/25 00:59:54;;;;;;;0.30;0.30;;;11.10;99.90;;;;;;4993467;28;20418;-65
2022/12/25 01:02:22;;;;;;;0.13;0.13;;;11.00;99.90;;;;;;4993524;28;20022;-64
2022/12/25 01:04:49;;;;;;;3.03;2.63;;;11.10;99.90;;;;;;4994013;28;20026;-64
2022/12/25 01:07:16;;;;;;;4.18;0.63;;;11.10;99.90;;;;;;4991541;28;20026;-64
2022/12/25 01:12:32;;;;;;;0.95;0.95;;;11.20;99.90;;;;;;4992699;28;20409;-64
2022/12/25 01:14:58;;;;;;;0.20;0.20;;;11.10;99.90;;;;;;4993443;28;20022;-65
2022/12/25 01:17:24;;;;;;;0.88;0.88;;;11.20;99.90;;;;;;4975721;28;20486;-64
2022/12/25 01:19:49;;;;;;;0.10;0.10;;;11.20;99.90;;;;;;4993101;28;20086;-64
2022/12/25 01:22:15;;;;;;;0.15;0.15;;;11.30;99.90;;;;;;4993281;28;20041;-64
2022/12/25 01:24:43;;;;;;;2.00;1.58;;;11.20;99.90;;;;;;4975248;28;20034;-64
2022/12/25 01:27:09;;;;;;;2.03;1.85;;;11.20;99.90;;;;;;4993393;28;20105;-64
2022/12/25 01:29:35;;;;;;;3.55;1.48;;;11.10;99.90;;;;;;4970663;28;20531;-63
2022/12/25 01:32:00;;;;;;;1.88;1.73;;;11.10;99.90;;;;;;4973706;28;20157;-64
2022/12/25 01:34:26;;;;;;;1.00;0.93;;;11.20;99.90;;;;;;4992764;28;20030;-64
2022/12/25 01:36:52;;;;;;;0.32;0.32;;;11.30;99.90;;;;;;4992748;28;20065;-65
2022/12/25 01:39:18;;;;;;;0.00;0.00;;;11.20;99.90;;;;;;4992374;28;20031;-64
2022/12/25 01:41:44;;;;;;;0.90;0.60;;;11.10;99.90;;;;;;4993042;28;20212;-63
2022/12/25 01:44:12;;;;;;;0.55;0.55;;;11.10;99.90;;;;;;4992809;28;20070;-63
2022/12/25 01:46:38;;;;;;;0.20;0.15;;;11.10;99.90;;;;;;4990837;28;20040;-65
2022/12/25 01:49:10;;;;;;;1.25;0.77;;;11.00;99.90;;;;;;4972890;28;20109;-64
2022/12/25 01:51:43;;;;;;;1.25;1.17;;;11.30;99.90;;;;;;4992890;28;20031;-63
2022/12/25 01:54:29;;;;;;;6.13;1.77;;;11.20;99.90;;;;;;4957526;28;20443;-63
2022/12/25 01:56:59;;;;;;;0.40;0.40;;;11.10;99.90;;;;;;4989766;28;20034;-63
2022/12/25 01:59:26;;;;;;;0.10;0.10;;;11.10;99.90;;;;;;4991551;28;20039;-64
2022/12/25 02:01:53;;;;;;;1.02;0.93;;;11.10;99.90;;;;;;4992644;28;20023;-66
2022/12/25 02:04:37;;;;;;;0.20;0.20;;;11.10;99.90;;;;;;4992864;28;20033;-64
2022/12/25 02:07:19;;;;;;;0.13;0.13;;;11.10;99.90;;;;;;4993054;28;20030;-63
2022/12/25 02:09:46;;;;;;;0.00;0.00;;;11.20;99.90;;;;;;4973875;28;20046;-63
2022/12/25 02:12:33;;;;;;;0.40;0.22;;;11.10;99.90;;;;;;4991040;28;20049;-64
2022/12/25 02:15:02;;;;;;;0.08;0.08;;;11.20;99.90;;;;;;4992737;28;20037;-65
2022/12/25 02:17:37;;;;;;;2.40;0.77;;;11.20;99.90;;;;;;4992499;28;20053;-65
2022/12/25 02:20:09;;;;;;;0.43;0.43;;;11.10;99.90;;;;;;4992063;28;20049;-65
2022/12/25 02:22:53;;;;;;;;;;;11.10;99.90;;;;;;4992457;28;20022;-65
2022/12/25 02:25:56;;;;;;;1.05;0.52;;;11.10;99.90;;;;;;4992422;28;19910;-66
2022/12/25 02:28:26;;;;;;;0.10;0.10;;;11.00;99.90;;;;;;4990992;28;20030;-64
2022/12/25 02:31:09;;;;;;;0.22;0.22;;;11.00;99.90;;;;;;4992500;28;20034;-64
2022/12/25 02:34:03;;;;;;;0.30;0.30;;;11.10;99.90;;;;;;4992677;28;20025;-64
2022/12/25 02:36:47;;;;;;;0.35;0.25;;;11.00;99.90;;;;;;4991394;28;20034;-64
2022/12/25 02:39:57;;;;;;;10.65;2.30;;;11.00;99.90;;;;;;4992044;28;20535;-65
2022/12/25 03:08:01;;;;;;;1.60;0.68;;;10.50;99.90;;;;;;4990831;28;20026;-65
2022/12/25 03:13:27;;;;;;;2.38;2.10;;;10.40;99.90;;;;;;4996061;28;20624;-65
2022/12/25 03:18:39;;;;;;;0.93;0.93;;;10.30;99.90;;;;;;4994035;28;20038;-65
2022/12/25 03:26:53;;;;;;;0.23;0.10;;;10.20;99.90;;;;;;4994420;28;20042;-64
2022/12/25 03:32:33;;;;;;;0.63;0.40;;;10.40;99.90;;;;;;4994952;28;20150;-64
2022/12/25 03:35:27;;;;;;;1.00;0.88;;;10.40;99.90;;;;;;4994792;28;20041;-64
2022/12/25 04:37:47;;;;;;;1.45;1.00;;;10.60;99.90;;;;;;5006310;28;20430;-64
2022/12/25 04:40:13;;;;;;;0.05;0.05;;;10.60;99.90;;;;;;4997412;28;20025;-64
2022/12/25 04:42:39;;;;;;;0.52;0.40;;;10.60;99.90;;;;;;5015167;28;20083;-68
2022/12/25 04:45:06;;;;;;;0.57;0.30;;;10.50;99.90;;;;;;5015129;28;20479;-64
2022/12/25 04:47:32;;;;;;;0.40;0.40;;;10.50;99.90;;;;;;5013406;28;20528;-64
2022/12/25 04:49:58;;;;;;;0.35;0.35;;;10.60;99.90;;;;;;5014707;28;20026;-66
2022/12/25 04:52:24;;;;;;;0.52;0.20;;;10.60;99.90;;;;;;5014731;28;20025;-64
2022/12/25 04:54:49;;;;;;;0.00;0.00;;;10.70;99.90;;;;;;5015028;28;20061;-64
2022/12/25 04:57:16;;;;;;;0.20;0.20;;;10.60;99.90;;;;;;5014811;28;20125;-65
2022/12/25 04:59:41;;;;;;;0.40;0.40;;;10.70;99.90;;;;;;4997317;28;20021;-64
2022/12/25 05:02:07;;;;;;;0.17;0.13;;;10.70;99.90;;;;;;5014107;28;20149;-64
2022/12/25 05:04:33;;;;;;;0.10;0.10;;;10.80;99.90;;;;;;5014675;28;20032;-65
2022/12/25 05:06:59;;;;;;;0.43;0.35;;;10.70;99.90;;;;;;5014686;28;20076;-64
2022/12/25 05:09:25;;;;;;;0.10;0.10;;;10.70;99.90;;;;;;5014513;28;20064;-65
2022/12/25 05:11:51;;;;;;;0.73;0.10;;;10.80;99.90;;;;;;5014281;28;20033;-64
2022/12/25 05:14:17;;;;;;;0.50;0.50;;;10.70;99.90;;;;;;5014448;28;20025;-64
2022/12/25 05:16:43;;;;;;;4.20;1.45;;;10.60;99.90;;;;;;5014174;28;20034;-64
2022/12/25 05:19:09;;;;;;;4.15;0.43;;;10.50;99.90;;;;;;5013994;28;20125;-64
2022/12/25 05:21:35;;;;;;;0.38;0.38;;;10.60;99.90;;;;;;5013950;28;20025;-64
2022/12/25 05:24:01;;;;;;;3.92;0.70;;;10.60;99.90;;;;;;5014235;28;20124;-64
2022/12/25 05:26:27;;;;;;;5.82;1.40;;;10.50;99.90;;;;;;5014189;28;20022;-65
2022/12/25 05:28:54;;;;;;;0.20;0.20;;;10.50;99.90;;;;;;5014069;28;20033;-66
2022/12/25 05:31:20;;;;;;;0.22;0.22;;;10.60;99.90;;;;;;4996528;28;20034;-64
2022/12/25 05:33:49;;;;;;;0.10;0.10;;;10.60;99.90;;;;;;5014291;28;20022;-64
2022/12/25 05:36:17;;;;;;;1.55;0.93;;;10.60;99.90;;;;;;5014208;28;20534;-64
2022/12/25 05:38:42;;;;;;;0.50;0.35;;;10.60;99.90;;;;;;4996158;28;20105;-64
2022/12/25 05:41:08;;;;;;;0.68;0.68;;;10.70;99.90;;;;;;5014236;28;20574;-64
2022/12/25 05:43:34;;;;;;;0.82;0.63;;;10.60;99.90;;;;;;5014014;28;20026;-64
2022/12/25 05:46:07;;;;;;;4.95;0.30;;;10.60;99.90;;;;;;5013628;28;20034;-64
2022/12/25 05:48:35;;;;;;;0.93;0.85;;;10.60;99.90;;;;;;5012252;28;20061;-64
2022/12/25 05:51:06;;;;;;;0.15;0.15;;;10.60;99.90;;;;;;5013881;28;20612;-64
2022/12/25 05:53:32;;;;;;;0.37;0.37;;;10.60;99.90;;;;;;5013917;28;20061;-64
2022/12/25 05:56:01;;;;;;;0.38;0.38;;;10.60;99.90;;;;;;5013777;28;20435;-63
2022/12/25 05:58:29;;;;;;;9.38;0.98;;;10.60;99.90;;;;;;5013158;28;20498;-66
2022/12/25 06:00:55;;;;;;;0.43;0.43;;;10.60;99.90;;;;;;5013661;28;20018;-63
2022/12/25 06:03:21;;;;;;;1.45;0.80;;;10.50;99.90;;;;;;5013460;28;20132;-63
2022/12/25 06:05:46;;;;;;;1.80;1.23;;;10.50;99.90;;;;;;5013627;28;20435;-65
2022/12/25 06:08:12;;;;;;;0.40;0.40;;;10.50;99.90;;;;;;5013321;28;20034;-64
2022/12/25 06:10:38;;;;;;;4.30;0.30;;;10.50;99.90;;;;;;5013569;28;20036;-65
2022/12/25 06:13:04;;;;;;;0.25;0.25;;;10.50;99.90;;;;;;5012932;28;20125;-63
2022/12/25 06:15:30;;;;;;;0.43;0.35;;;10.60;99.90;;;;;;5012214;28;20530;-64
2022/12/25 06:17:59;;;;;;;0.80;0.38;;;10.60;99.90;;;;;;5013214;28;20042;-64
2022/12/25 06:20:24;;;;;;;0.10;0.10;;;10.70;99.90;;;;;;5013258;28;20037;-64
2022/12/25 06:22:50;;;;;;;0.10;0.10;;;10.60;99.90;;;;;;5013236;28;20029;-64
2022/12/25 06:25:16;;;;;;;0.00;0.00;;;10.70;99.90;;;;;;5012918;28;20112;-65
2022/12/25 06:27:42;;;;;;;0.22;0.22;;;10.70;99.90;;;;;;5012984;28;20026;-65
2022/12/25 06:30:08;;;;;;;0.30;0.30;;;10.80;99.90;;;;;;5012802;28;20014;-64
2022/12/25 06:32:34;;;;;;;0.00;0.00;;;10.80;99.90;;;;;;5013294;28;20032;-64
2022/12/25 06:35:00;;;;;;;0.00;0.00;;;10.90;99.90;;;;;;5012631;28;20461;-64
2022/12/25 06:37:26;;;;;;;0.10;0.10;;;10.80;99.90;;;;;;5013194;28;20036;-64
2022/12/25 06:39:52;;;;;;;0.00;0.00;;;10.80;99.90;;;;;;5012768;28;20025;-68
2022/12/25 06:42:18;;;;;;;2.28;1.05;;;10.80;99.90;;;;;;5012973;28;20030;-64
2022/12/25 06:44:44;;;;;;;0.70;0.65;;;10.90;99.90;;;;;;5012590;28;20026;-64
2022/12/25 06:47:10;;;;;;;0.65;0.65;;;10.80;99.90;;;;;;5012904;28;20022;-64
2022/12/25 06:49:36;;;;;;;0.93;0.80;;;10.70;99.90;;;;;;5007138;28;20096;-64
2022/12/25 06:52:02;;;;;;;0.00;0.00;;;10.80;99.90;;;;;;5009469;28;20443;-64
2022/12/25 06:54:27;;;;;;;0.10;0.10;;;10.70;99.90;;;;;;5012717;28;20026;-65
2022/12/25 06:56:53;;;;;;;0.73;0.73;;;10.70;99.90;;;;;;5008459;28;20030;-64
2022/12/25 06:59:19;;;;;;;0.13;0.13;;;10.70;99.90;;;;;;5012179;28;20026;-64
2022/12/25 07:01:57;;;;;;;0.00;0.00;;;10.70;99.90;;;;;;5013003;28;20124;-67
2022/12/25 07:04:37;;;;;;;1.88;0.55;;;10.60;99.90;;;;;;5006857;28;20113;-65
2022/12/25 07:07:04;;;;;;;0.52;0.52;;;10.70;99.90;;;;;;5007113;28;20034;-64
2022/12/25 07:09:30;;;;;;;1.15;0.45;;;10.70;99.90;;;;;;5012586;28;20105;-63
2022/12/25 07:12:12;;;;;;;0.32;0.32;;;10.60;99.90;;;;;;5012323;28;20038;-63
2022/12/25 07:14:38;;;;;;;0.20;0.20;;;10.70;99.90;;;;;;5012765;28;20079;-64
2022/12/25 07:17:04;;;;;;;0.57;0.57;;;10.80;99.90;;;;;;5012679;28;20053;-63
2022/12/25 07:19:30;;;;;;;0.00;0.00;;;10.80;99.90;;;;;;5012377;28;20026;-68
2022/12/25 07:21:56;;;;;;;0.10;0.10;;;10.80;99.90;;;;;;5011944;28;20427;-65
2022/12/25 07:24:22;;;;;;;0.63;0.20;;;10.90;99.90;;;;;;5012779;28;20379;-63
2022/12/25 07:26:49;;;;;;;2.58;0.65;;;10.90;99.90;;;;;;5012248;28;20525;-63
2022/12/25 07:29:16;;;;;;;0.00;0.00;;;10.90;99.90;;;;;;5012580;28;20030;-64
2022/12/25 07:31:42;;;;;;;0.08;0.08;;;10.90;99.90;;;;;;5012628;28;20026;-64
2022/12/25 07:34:08;;;;;;;0.00;0.00;;;10.70;99.90;;;;;;5012693;28;20026;-65
2022/12/25 07:36:34;;;;;;;1.48;0.38;;;10.70;99.90;;;;;;5012296;28;20026;-63
2022/12/25 07:39:00;;;;;;;0.08;0.08;;;10.80;99.90;;;;;;4995026;28;20034;-63
2022/12/25 07:41:26;;;;;;;0.45;0.40;;;10.80;99.90;;;;;;5012252;28;20053;-64
2022/12/25 07:44:05;;;;;;;0.30;0.30;;;10.70;99.90;;;;;;5011432;28;20030;-63
2022/12/25 07:46:31;;;;;;;0.00;0.00;;;10.60;99.90;;;;;;5012500;28;20026;-67
2022/12/25 07:48:57;;;;;;;1.80;1.33;;;10.70;99.90;;;;;;5012149;28;20117;-63
2022/12/25 07:51:23;;;;;;;0.30;0.30;;;10.70;99.90;;;;;;5012308;28;20030;-66
2022/12/25 07:53:48;;;;;;;0.10;0.10;;;10.60;99.90;;;;;;5012435;28;20018;-64
2022/12/25 07:56:17;;;;;;;0.10;0.10;;;10.70;99.90;;;;;;5013300;28;20025;-64
2022/12/25 07:58:44;;;;;;;0.10;0.10;;;10.70;99.90;;;;;;4998210;28;20030;-65
2022/12/25 08:01:16;;;;;;;0.40;0.40;;;10.80;99.90;;;;;;5015925;28;20026;-66
2022/12/25 08:03:47;;;;;;;0.00;0.00;;;10.70;99.90;;;;;;5016025;28;20113;-65
2022/12/25 08:06:12;;;;;;;0.55;0.55;;;10.80;99.90;;;;;;5015748;28;20026;-65
2022/12/25 08:08:39;;;;;;;1.48;0.90;;;10.80;99.90;;;;;;5015727;28;20431;-64
2022/12/25 08:11:08;;;;;;;0.47;0.22;;;10.70;99.90;;;;;;5015248;28;20148;-64
2022/12/25 08:13:34;;;;;;;0.85;0.70;;;10.70;99.90;;;;;;5014629;28;20029;-66
2022/12/25 08:16:02;;;;;;;0.43;0.43;;;10.80;99.90;;;;;;5015553;28;20079;-66
2022/12/25 08:18:29;;;;;;;0.52;0.22;;;10.80;99.90;;;;;;5015244;28;20041;-65
2022/12/25 08:20:55;;;;;;;0.20;0.20;;;10.70;99.90;;;;;;4998039;28;20160;-66
2022/12/25 08:23:21;;;;;;;0.52;0.52;;;10.80;99.90;;;;;;4997710;28;20037;-66
2022/12/25 08:25:47;;;;;;;2.50;0.85;;;10.70;99.90;;;;;;5014176;28;20391;-63
2022/12/25 08:28:12;;;;;;;1.13;0.98;;;10.70;99.90;;;;;;5014792;28;20108;-65
2022/12/25 08:30:40;;;;;;;0.45;0.45;;;10.60;99.90;;;;;;5014763;28;20383;-65
2022/12/25 08:33:06;;;;;;;0.65;0.60;;;10.60;99.90;;;;;;5014605;28;20105;-64
2022/12/25 08:35:33;;;;;;;1.30;1.20;;;10.50;99.90;;;;;;5015075;28;20021;-64
2022/12/25 08:37:59;;;;;;;0.32;0.32;;;10.60;99.90;;;;;;5014906;28;20038;-65
2022/12/25 08:40:25;;;;;;;0.68;0.68;;;10.50;99.90;;;;;;5015019;28;20018;-65
2022/12/25 08:42:50;;;;;;;0.57;0.57;;;10.50;99.90;;;;;;5015311;28;20394;-66
2022/12/25 08:45:16;;;;;;;0.10;0.10;;;10.50;99.90;;;;;;5015031;28;20386;-65
2022/12/25 08:47:42;;;;;;;0.00;0.00;;;10.50;99.90;;;;;;5014960;28;20451;-65
2022/12/25 08:50:08;;;;;;;0.52;0.32;;;10.50;99.90;;;;;;5013569;28;20029;-64
2022/12/25 08:52:34;;;;;;;0.40;0.40;;;10.60;99.90;;;;;;5014714;28;20033;-63
2022/12/25 08:55:00;;;;;;;0.25;0.25;;;10.60;99.90;;;;;;4997697;28;20026;-65
2022/12/25 08:57:25;;;;;;;0.10;0.10;;;10.60;99.90;;;;;;5014784;28;20473;-66
2022/12/25 08:59:51;;;;;;;0.00;0.00;;;10.50;99.90;;;;;;5014632;28;20040;-65
2022/12/25 09:02:17;;;;;;;0.10;0.10;;;10.70;99.90;;;;;;5014449;28;20167;-66
2022/12/25 09:04:46;;;;;;;0.20;0.20;;;10.60;99.90;;;;;;5014796;28;20014;-66
2022/12/25 09:07:12;;;;;;;0.10;0.10;;;10.80;99.90;;;;;;4996291;28;20026;-67
2022/12/25 09:09:38;;;;;;;0.00;0.00;;;10.80;99.90;;;;;;5014569;28;20025;-66
2022/12/25 09:12:04;;;;;;;4.55;0.85;;;10.80;99.90;;;;;;5014071;28;20026;-63
2022/12/25 09:14:30;;;;;;;0.57;0.50;;;11.00;99.90;;;;;;5014304;28;20018;-64
2022/12/25 09:16:56;;;;;;;0.10;0.10;;;10.90;99.90;;;;;;5014324;28;20076;-66
2022/12/25 09:19:21;;;;;;;0.10;0.10;;;10.90;99.90;;;;;;5013885;28;20030;-63
2022/12/25 09:21:47;;;;;;;0.10;0.10;;;11.00;99.90;;;;;;5014102;28;20025;-64
2022/12/25 09:24:13;;;;;;;0.00;0.00;;;11.00;99.90;;;;;;4998805;28;20387;-64
2022/12/25 09:26:39;;;;;;;0.05;0.05;;;11.00;99.90;;;;;;5014187;28;20479;-63
2022/12/25 09:29:05;;;;;;;0.10;0.10;;;11.00;99.90;;;;;;5013859;28;20029;-63
2022/12/25 09:31:30;;;;;;;0.10;0.10;;;11.00;99.90;;;;;;5014007;28;20548;-65
2022/12/25 09:33:57;;;;;;;0.00;0.00;;;11.00;99.90;;;;;;5014192;28;20037;-63
2022/12/25 09:36:24;;;;;;;0.00;0.00;;;11.10;99.90;;;;;;5013596;28;20088;-64
2022/12/25 09:38:50;;;;;;;0.32;0.32;;;11.20;99.90;;;;;;5013084;28;20052;-64
2022/12/25 09:41:32;;;;;;;0.00;0.00;;;11.10;99.90;;;;;;5014030;28;20037;-64
2022/12/25 09:44:14;;;;;;;0.10;0.10;;;11.10;99.90;;;;;;5013816;28;20033;-64
2022/12/25 09:46:47;;;;;;;0.10;0.10;;;11.20;99.90;;;;;;5013831;28;20025;-64
2022/12/25 09:49:22;;;;;;;0.00;0.00;;;11.20;99.90;;;;;;5013533;28;20121;-66
2022/12/25 09:51:54;;;;;;;0.13;0.13;;;11.40;99.90;;;;;;5013513;28;20030;-64
2022/12/25 09:54:43;;;;;;;0.20;0.20;;;11.40;99.90;;;;;;5013683;28;20046;-64
2022/12/25 09:57:13;;;;;;;0.10;0.10;;;11.20;99.90;;;;;;5013503;28;20036;-65
2022/12/25 09:59:42;;;;;;;0.00;0.00;;;11.20;99.90;;;;;;5013494;28;20426;-64
2022/12/25 10:02:45;;;;;;;0.38;0.38;;;11.30;99.90;;;;;;5013676;28;20064;-64
2022/12/25 10:05:28;;;;;;;0.88;0.85;;;11.10;99.90;;;;;;5013488;28;20375;-63
2022/12/25 10:08:16;;;;;;;0.20;0.20;;;11.20;99.90;;;;;;5013645;28;20045;-66
2022/12/25 10:10:44;;;;;;;0.25;0.25;;;11.20;99.90;;;;;;5013319;28;20422;-63
2022/12/25 10:13:35;;;;;;;0.10;0.10;;;11.00;99.90;;;;;;4995565;28;20113;-63
2022/12/25 10:16:12;;;;;;;0.00;0.00;;;11.00;99.90;;;;;;5012987;28;20029;-64
2022/12/25 10:18:47;;;;;;;1.35;1.17;;;11.10;99.90;;;;;;5013012;28;20391;-64
2022/12/25 10:21:17;;;;;;;0.00;0.00;;;11.10;99.90;;;;;;5012802;28;20029;-65
2022/12/25 10:23:51;;;;;;;0.63;0.47;;;11.30;99.90;;;;;;5012919;28;20108;-64
2022/12/25 10:26:24;;;;;;;0.00;0.00;;;11.20;99.90;;;;;;5013058;28;20069;-65
2022/12/25 10:29:18;;;;;;;0.30;0.30;;;11.20;99.90;;;;;;5012813;28;20029;-64
2022/12/25 10:31:50;;;;;;;0.10;0.10;;;11.10;99.90;;;;;;5011235;28;20364;-65
2022/12/25 10:34:16;;;;;;;0.00;0.00;;;11.00;99.90;;;;;;4995433;28;20030;-64
2022/12/25 10:36:44;;;;;;;1.52;1.42;;;11.00;99.90;;;;;;5012809;28;20033;-64
2022/12/25 10:39:37;;;;;;;0.32;0.32;;;10.70;99.90;;;;;;4995748;28;20046;-67
2022/12/25 10:42:39;;;;;;;0.22;0.22;;;10.70;99.90;;;;;;5010000;28;20048;-65
2022/12/25 10:45:08;;;;;;;0.10;0.10;;;10.70;99.90;;;;;;5012765;28;20030;-64
2022/12/25 10:47:41;;;;;;;0.00;0.00;;;10.70;99.90;;;;;;5012998;28;20022;-64
2022/12/25 10:50:27;;;;;;;0.52;0.52;;;10.70;99.90;;;;;;4994761;28;20088;-65
2022/12/25 10:53:03;;;;;;;0.08;0.08;;;10.70;99.90;;;;;;5012821;28;20498;-64
2022/12/25 10:55:30;;;;;;;0.47;0.47;;;10.80;99.90;;;;;;5012419;28;20033;-65
2022/12/25 10:57:57;;;;;;;0.00;0.00;;;11.00;99.90;;;;;;5012638;28;20372;-67
2022/12/25 11:00:26;;;;;;;0.20;0.20;;;11.00;99.90;;;;;;5012776;28;20414;-65
2022/12/25 11:02:51;;;;;;;1.95;0.90;;;11.10;99.90;;;;;;5006578;28;20046;-65
2022/12/25 11:05:29;;;;;;;0.10;0.10;;;11.10;99.90;;;;;;4994463;28;20459;-67
2022/12/25 11:07:57;;;;;;;0.00;0.00;;;11.30;99.90;;;;;;5001790;28;20058;-66
2022/12/25 11:10:31;;;;;;;0.00;0.00;;;11.40;99.90;;;;;;4991643;28;20023;-64
2022/12/25 11:12:58;;;;;;;0.00;0.00;;;11.60;99.90;;;;;;4994055;28;20030;-68
2022/12/25 11:15:37;;;;;;;0.03;0.03;;;11.50;99.90;;;;;;4990331;28;20410;-65
2022/12/25 11:18:25;;;;;;;0.00;0.00;;;11.60;99.90;;;;;;4992458;28;20034;-65
2022/12/25 11:20:53;;;;;;;0.30;0.30;;;11.50;99.90;;;;;;4994899;28;20053;-66
2022/12/25 11:23:22;;;;;;;2.75;0.60;;;11.40;99.90;;;;;;4992233;28;20057;-64
2022/12/25 11:25:59;;;;;;;0.10;0.10;;;11.20;99.90;;;;;;4990422;28;20015;-64
2022/12/25 11:28:28;;;;;;;0.47;0.47;;;11.00;99.90;;;;;;4994502;28;20053;-69
2022/12/25 11:31:01;;;;;;;0.10;0.10;;;11.00;99.90;;;;;;4995039;28;20585;-65
2022/12/25 11:33:33;;;;;;;0.22;0.22;;;11.10;99.90;;;;;;4995980;28;20018;-67
2022/12/25 11:36:02;;;;;;;;;;;11.00;99.90;;;;;;4995716;28;20069;-65
2022/12/25 11:38:29;;;;;;;0.00;0.00;;;11.00;99.90;;;;;;5005412;28;19944;-64
2022/12/25 11:40:59;;;;;;;0.10;0.10;;;11.10;99.90;;;;;;4997519;28;20117;-65
2022/12/25 11:43:33;;;;;;;0.10;0.10;;;11.10;99.90;;;;;;4999983;28;20116;-68
2022/12/25 11:46:25;;;;;;;0.10;0.10;;;11.20;99.90;;;;;;4993718;28;20033;-65
2022/12/25 11:49:03;;;;;;;0.10;0.10;;;11.30;99.90;;;;;;4986091;28;20046;-64
2022/12/25 11:51:32;;;;;;;0.15;0.15;;;11.40;99.90;;;;;;5015416;28;20033;-64
2022/12/25 11:54:04;;;;;;;0.47;0.47;;;11.50;99.90;;;;;;5014634;28;20105;-67
2022/12/25 11:56:30;;;;;;;0.10;0.10;;;11.50;99.90;;;;;;5015584;28;20084;-64
2022/12/25 11:59:14;;;;;;;0.00;0.00;;;11.50;99.90;;;;;;5001764;28;20482;-64
2022/12/25 12:02:02;;;;;;;0.10;0.10;;;11.60;99.90;;;;;;5015089;28;20030;-66
2022/12/25 12:04:35;;;;;;;0.00;0.00;;;11.60;99.90;;;;;;5006907;28;20081;-64
2022/12/25 12:07:15;;;;;;;0.08;0.08;;;11.70;99.90;;;;;;4995708;28;20070;-67
2022/12/25 12:10:14;;;;;;;1.42;1.33;;;11.70;99.90;;;;;;4995517;28;20015;-68
2022/12/25 12:12:50;;;;;;;0.22;0.22;;;11.80;99.90;;;;;;4997498;28;20420;-65
2022/12/25 12:15:28;;;;;;;0.25;0.25;;;11.60;99.90;;;;;;4997162;28;20026;-64
2022/12/25 12:17:54;;;;;;;2.38;0.90;;;11.40;99.90;;;;;;4998550;28;20066;-65
2022/12/25 12:20:34;;;;;;;7.93;1.75;;;11.20;99.90;;;;;;4996090;28;20097;-65
2022/12/25 12:23:03;;;;;;;1.90;0.82;;;11.30;99.90;;;;;;4996775;28;20345;-68
2022/12/25 12:25:30;;;;;;;0.90;0.88;;;11.20;99.90;;;;;;4995203;28;20033;-67
2022/12/25 12:27:59;;;;;;;0.10;0.10;;;11.10;99.90;;;;;;4997164;28;20364;-66
2022/12/25 12:30:30;;;;;;;0.75;0.75;;;11.10;99.90;;;;;;4996849;28;20101;-67
2022/12/25 12:33:00;;;;;;;0.10;0.10;;;11.10;99.90;;;;;;4996354;28;20034;-66
2022/12/25 12:35:38;;;;;;;0.10;0.10;;;11.10;99.90;;;;;;5003618;28;20378;-64
2022/12/25 12:38:18;;;;;;;0.38;0.38;;;11.10;99.90;;;;;;5008530;28;20095;-64
2022/12/25 12:41:06;;;;;;;1.00;0.95;;;11.00;99.90;;;;;;5010820;28;20030;-63
2022/12/25 12:43:43;;;;;;;0.00;0.00;;;11.10;99.90;;;;;;5014136;28;20041;-65
2022/12/25 12:46:28;;;;;;;0.60;0.60;;;11.10;99.90;;;;;;5014778;28;20033;-65
2022/12/25 12:49:09;;;;;;;0.25;0.25;;;11.10;99.90;;;;;;5014376;28;20030;-64
2022/12/25 12:51:36;;;;;;;0.00;0.00;;;11.10;99.90;;;;;;5007873;28;20030;-63
2022/12/25 12:54:21;;;;;;;0.13;0.13;;;11.20;99.90;;;;;;5014407;28;20378;-64
2022/12/25 12:57:00;;;;;;;0.10;0.10;;;11.40;99.90;;;;;;5008534;28;20036;-63
2022/12/25 12:59:39;;;;;;;0.10;0.10;;;11.60;99.90;;;;;;5010218;28;20038;-64
2022/12/25 13:02:25;;;;;;;0.00;0.00;;;11.60;99.90;;;;;;5014363;28;20041;-64
2022/12/25 13:05:15;;;;;;;0.00;0.00;;;11.60;99.90;;;;;;5014449;28;20080;-64
2022/12/25 13:08:19;;;;;;;0.70;0.32;;;11.70;99.90;;;;;;5014184;28;20096;-67
2022/12/25 13:11:22;;;;;;;0.95;0.47;;;11.70;99.90;;;;;;4933704;28;20085;-65
2022/12/25 13:13:51;;;;;;;2.58;2.38;;;11.50;99.90;;;;;;4982698;28;20387;-64
2022/12/25 13:16:25;;;;;;;2.00;1.27;;;11.40;99.90;;;;;;5008810;28;20022;-65
2022/12/25 13:18:54;;;;;;;0.00;0.00;;;11.30;99.90;;;;;;5013992;28;20402;-64
2022/12/25 13:21:25;;;;;;;0.90;0.90;;;11.30;99.90;;;;;;5013937;28;20034;-64
2022/12/25 13:24:09;;;;;;;0.10;0.10;;;11.40;99.90;;;;;;5014313;28;20532;-67
2022/12/25 13:26:35;;;;;;;0.20;0.20;;;11.50;99.90;;;;;;5012929;28;20108;-64
2022/12/25 13:29:02;;;;;;;6.40;3.70;;;11.60;99.90;;;;;;5013649;28;20113;-66
2022/12/25 13:31:30;;;;;;;21.45;3.28;;;11.50;99.90;;;;;;5000202;28;20033;-64
2022/12/25 13:34:02;;;;;;;2.30;0.80;;;11.60;99.90;;;;;;5011687;28;20105;-64
2022/12/25 13:36:33;;;;;;;0.20;0.20;;;11.40;99.90;;;;;;5003796;28;20041;-64
2022/12/25 13:39:00;;;;;;;1.50;0.30;;;11.50;99.90;;;;;;5013673;28;20037;-65
2022/12/25 13:44:22;;;;;;;0.10;0.10;;;11.40;99.90;;;;;;4998738;28;20099;-65
2022/12/25 13:46:48;;;;;;;1.08;1.08;;;11.40;99.90;;;;;;5013189;28;20030;-65
2022/12/25 13:49:22;;;;;;;0.00;0.00;;;11.40;99.90;;;;;;5012848;28;20033;-64
2022/12/25 13:51:49;;;;;;;0.93;0.90;;;11.60;99.90;;;;;;5013984;28;20034;-64
2022/12/25 13:54:16;;;;;;;0.00;0.00;;;11.50;99.90;;;;;;5012718;28;20463;-64
2022/12/25 13:56:51;;;;;;;0.00;0.00;;;11.60;99.90;;;;;;5013516;28;20033;-63
2022/12/25 13:59:20;;;;;;;0.00;0.00;;;11.70;99.90;;;;;;5013568;28;20030;-66
2022/12/25 14:01:47;;;;;;;0.00;0.00;;;11.80;99.90;;;;;;4995956;28;20026;-67
2022/12/25 14:04:22;;;;;;;0.05;0.05;;;12.00;99.90;;;;;;5012021;28;20026;-64
2022/12/25 14:06:48;;;;;;;0.05;0.05;;;11.90;99.90;;;;;;5013530;28;20424;-64
2022/12/25 14:09:14;;;;;;;2.85;0.93;;;11.90;99.90;;;;;;5013029;28;20383;-65
2022/12/25 14:11:44;;;;;;;0.40;0.40;;;11.60;99.90;;;;;;5011989;28;20029;-64
2022/12/25 14:14:24;;;;;;;0.43;0.43;;;11.40;99.90;;;;;;5013192;28;20510;-64
2022/12/25 14:16:55;;;;;;;1.42;1.35;;;11.40;99.90;;;;;;5013265;28;20120;-64
2022/12/25 14:19:29;;;;;;;1.17;1.00;;;11.40;99.90;;;;;;5013344;28;20018;-64
2022/12/25 14:22:26;;;;;;;0.10;0.10;;;11.60;99.90;;;;;;5013512;28;20034;-66
2022/12/25 14:24:52;;;;;;;0.40;0.40;;;11.70;99.90;;;;;;5012962;28;20053;-64
2022/12/25 14:27:24;;;;;;;0.22;0.22;;;12.10;99.90;;;;;;5012761;28;20037;-64
2022/12/25 14:29:53;;;;;;;0.57;0.57;;;12.00;99.90;;;;;;5012920;28;20073;-64
2022/12/25 14:32:23;;;;;;;0.38;0.38;;;12.20;99.90;;;;;;5013025;28;20478;-64
2022/12/25 14:34:56;;;;;;;0.00;0.00;;;11.90;99.90;;;;;;5012971;28;20479;-64
2022/12/25 14:37:27;;;;;;;3.17;1.52;;;11.80;99.90;;;;;;5013079;28;20037;-64
2022/12/25 14:40:01;;;;;;;12.90;9.10;;;11.90;99.90;;;;;;4994907;28;20117;-64
2022/12/25 14:42:33;;;;;;;0.00;0.00;;;11.80;99.90;;;;;;5012696;28;20463;-68
2022/12/25 14:45:23;;;;;;;0.00;0.00;;;12.00;99.90;;;;;;5012940;28;20034;-65
2022/12/25 14:47:52;;;;;;;0.30;0.30;;;11.80;99.90;;;;;;5013075;28;20025;-64
2022/12/25 14:50:35;;;;;;;0.00;0.00;;;12.00;99.90;;;;;;5012405;28;20030;-64
2022/12/25 14:53:01;;;;;;;0.00;0.00;;;11.90;99.90;;;;;;4992489;28;20026;-64